Time;durP1;ratioP1;P1;durP2;ratioP2;P2;SDS_P1;SDS_P2;PMS_P1;PMS_P2;Temp;Humidity;BMP_temperature;BMP_pressure;BME280_temperature;BME280_humidity;BME280_pressure;Samples;Min_cycle;Max_cycle;Signal;HPM_P1;HPM_P2
2023/08/22 00:00:04;;;;;;;5.82;2.08;;;17.00;99.90;;;;;;5093819;28;20060;-81
2023/08/22 00:02:38;;;;;;;7.25;2.00;;;17.00;99.90;;;;;;5095402;28;20051;-81
2023/08/22 00:05:04;;;;;;;8.00;1.65;;;17.00;99.90;;;;;;5095136;28;20094;-81
2023/08/22 00:07:33;;;;;;;4.88;1.73;;;17.00;99.90;;;;;;5063059;28;20076;-81
2023/08/22 00:10:00;;;;;;;6.47;1.75;;;17.00;99.90;;;;;;5081542;28;20119;-81
2023/08/22 00:12:27;;;;;;;6.35;2.00;;;16.90;99.90;;;;;;5082213;28;20060;-80
2023/08/22 00:14:53;;;;;;;4.50;1.75;;;16.90;99.90;;;;;;5070671;28;20045;-81
2023/08/22 00:20:10;;;;;;;7.07;1.77;;;16.80;99.90;;;;;;5091654;28;20116;-81
2023/08/22 00:22:37;;;;;;;6.72;1.90;;;16.80;99.90;;;;;;5097086;28;20043;-80
2023/08/22 00:25:04;;;;;;;7.50;1.63;;;16.80;99.90;;;;;;5096619;28;20032;-81
2023/08/22 00:27:33;;;;;;;9.70;2.22;;;16.80;99.90;;;;;;5098938;28;20476;-81
2023/08/22 00:29:59;;;;;;;7.22;2.20;;;16.80;99.90;;;;;;5081251;28;20086;-81
2023/08/22 00:32:26;;;;;;;9.10;2.13;;;16.70;99.90;;;;;;5092881;28;20050;-81
2023/08/22 00:34:53;;;;;;;5.75;2.28;;;16.70;99.90;;;;;;5082864;28;20049;-80
2023/08/22 00:37:19;;;;;;;5.40;1.92;;;16.60;99.90;;;;;;5074915;28;20473;-81
2023/08/22 00:39:46;;;;;;;6.88;2.15;;;16.60;99.90;;;;;;5082830;28;20052;-81
2023/08/22 00:42:13;;;;;;;5.63;2.20;;;16.50;99.90;;;;;;5094015;28;20090;-80
2023/08/22 00:44:40;;;;;;;13.45;2.08;;;16.50;99.90;;;;;;5094794;28;20044;-81
2023/08/22 00:47:09;;;;;;;5.72;1.60;;;16.50;99.90;;;;;;5093182;28;20038;-80
2023/08/22 00:49:35;;;;;;;11.75;1.88;;;16.50;99.90;;;;;;5068137;28;20119;-81
2023/08/22 00:52:02;;;;;;;5.13;1.85;;;16.40;99.90;;;;;;5056931;28;20062;-80
2023/08/22 00:54:31;;;;;;;5.88;1.90;;;16.40;99.90;;;;;;5055804;28;20387;-81
2023/08/22 00:56:59;;;;;;;10.23;1.80;;;16.40;99.90;;;;;;5056726;28;20045;-81
2023/08/22 00:59:26;;;;;;;6.05;1.95;;;16.40;99.90;;;;;;5074241;28;20119;-81
2023/08/22 01:01:52;;;;;;;6.05;1.52;;;16.40;99.90;;;;;;5040131;28;20494;-81
2023/08/22 01:04:19;;;;;;;13.60;2.13;;;16.40;99.90;;;;;;5073068;28;20162;-80
2023/08/22 01:06:46;;;;;;;9.90;2.35;;;16.40;99.90;;;;;;5036360;28;20119;-81
2023/08/22 01:09:13;;;;;;;12.10;1.95;;;16.30;99.90;;;;;;5054885;28;20337;-81
2023/08/22 01:11:40;;;;;;;8.05;1.88;;;16.30;99.90;;;;;;5037161;28;20033;-80
2023/08/22 01:14:07;;;;;;;6.88;2.05;;;16.30;99.90;;;;;;5035905;28;20049;-81
2023/08/22 01:16:34;;;;;;;8.07;2.20;;;16.30;99.90;;;;;;5072237;28;20045;-81
2023/08/22 01:19:03;;;;;;;9.50;2.00;;;16.20;99.90;;;;;;5057272;28;20080;-80
2023/08/22 01:21:30;;;;;;;8.95;1.95;;;16.20;99.90;;;;;;5055690;28;20045;-80
2023/08/22 01:23:56;;;;;;;13.00;2.20;;;16.20;99.90;;;;;;5074264;28;20111;-80
2023/08/22 01:26:24;;;;;;;11.68;2.10;;;16.20;99.90;;;;;;5072689;28;20037;-80
2023/08/22 01:28:50;;;;;;;6.28;2.53;;;16.10;99.90;;;;;;5068300;28;20041;-80
2023/08/22 01:31:17;;;;;;;8.23;2.53;;;16.10;99.90;;;;;;5040008;28;20091;-80
2023/08/22 01:33:44;;;;;;;6.93;2.40;;;16.10;99.90;;;;;;5057219;28;20049;-80
2023/08/22 01:36:10;;;;;;;9.20;2.72;;;16.10;99.90;;;;;;5047880;28;20045;-80
2023/08/22 01:38:37;;;;;;;7.80;2.40;;;16.10;99.90;;;;;;5044254;28;20070;-81
2023/08/22 01:41:04;;;;;;;8.95;2.30;;;16.10;99.90;;;;;;5059537;28;20127;-81
2023/08/22 01:43:31;;;;;;;11.90;3.35;;;16.00;99.90;;;;;;5048214;28;20059;-81
2023/08/22 01:45:57;;;;;;;8.43;2.63;;;16.00;99.90;;;;;;5039957;28;20043;-81
2023/08/22 01:48:24;;;;;;;6.10;2.05;;;16.00;99.90;;;;;;5057989;28;20113;-80
2023/08/22 01:50:51;;;;;;;11.68;3.15;;;16.00;99.90;;;;;;5074523;28;20074;-80
2023/08/22 01:53:18;;;;;;;8.48;2.60;;;16.00;99.90;;;;;;5077097;28;20052;-81
2023/08/22 01:55:44;;;;;;;8.38;2.90;;;16.00;99.90;;;;;;5059026;28;20049;-81
2023/08/22 01:58:14;;;;;;;9.20;2.63;;;16.00;99.90;;;;;;5040122;28;20051;-81
2023/08/22 02:00:40;;;;;;;11.70;3.33;;;16.00;99.90;;;;;;5039575;28;20045;-80
2023/08/22 02:03:08;;;;;;;9.05;2.55;;;15.90;99.90;;;;;;5059372;28;20040;-80
2023/08/22 02:05:35;;;;;;;14.57;2.80;;;15.90;99.90;;;;;;5059594;28;20044;-81
2023/08/22 02:08:03;;;;;;;7.82;2.70;;;15.90;99.90;;;;;;5041295;28;20041;-81
2023/08/22 02:10:31;;;;;;;8.15;2.90;;;15.90;99.90;;;;;;5050905;28;20036;-81
2023/08/22 02:12:57;;;;;;;7.25;2.50;;;15.90;99.90;;;;;;5042563;28;20045;-81
2023/08/22 02:15:24;;;;;;;11.48;2.83;;;15.90;99.90;;;;;;5048089;28;20524;-81
2023/08/22 02:17:53;;;;;;;9.80;2.70;;;15.90;99.90;;;;;;5047859;28;20053;-81
2023/08/22 02:20:22;;;;;;;9.93;2.95;;;15.90;99.90;;;;;;5044297;28;20442;-81
2023/08/22 02:22:49;;;;;;;8.00;2.90;;;15.90;99.90;;;;;;5059427;28;20044;-80
2023/08/22 02:25:16;;;;;;;9.73;2.75;;;15.90;99.90;;;;;;5059305;28;20040;-81
2023/08/22 02:27:43;;;;;;;13.75;3.42;;;15.90;99.90;;;;;;5050562;28;20430;-80
2023/08/22 02:30:10;;;;;;;11.48;2.90;;;15.90;99.90;;;;;;5053719;28;20041;-81
2023/08/22 02:32:38;;;;;;;8.07;2.92;;;15.90;99.90;;;;;;5076962;28;20121;-81
2023/08/22 02:35:06;;;;;;;11.35;2.88;;;15.90;99.90;;;;;;5059071;28;20470;-80
2023/08/22 02:37:33;;;;;;;10.50;3.15;;;15.90;99.90;;;;;;5040191;28;20387;-81
2023/08/22 02:40:00;;;;;;;7.20;2.65;;;15.90;99.90;;;;;;5056756;28;20413;-81
2023/08/22 02:42:27;;;;;;;12.70;3.33;;;15.90;99.90;;;;;;5039545;28;20040;-80
2023/08/22 02:44:54;;;;;;;12.77;2.90;;;15.90;99.90;;;;;;5076452;28;20063;-80
2023/08/22 02:47:21;;;;;;;8.80;3.17;;;15.90;99.90;;;;;;5061804;28;20464;-80
2023/08/22 02:49:47;;;;;;;7.47;2.85;;;15.90;99.90;;;;;;5076528;28;20114;-81
2023/08/22 02:52:14;;;;;;;7.38;3.03;;;15.80;99.90;;;;;;5058881;28;20079;-79
2023/08/22 02:54:41;;;;;;;8.38;2.70;;;15.90;99.90;;;;;;5041198;28;20559;-80
2023/08/22 02:59:37;;;;;;;10.32;3.53;;;15.80;99.90;;;;;;5074321;28;20430;-80
2023/08/22 03:02:04;;;;;;;14.05;3.40;;;15.80;99.90;;;;;;5058760;28;20116;-81
2023/08/22 03:04:33;;;;;;;12.10;3.22;;;15.80;99.90;;;;;;5058460;28;20379;-81
2023/08/22 03:07:01;;;;;;;9.00;3.63;;;15.80;99.90;;;;;;5057771;28;20131;-80
2023/08/22 03:09:29;;;;;;;9.93;3.53;;;15.80;99.90;;;;;;5058613;28;20040;-80
2023/08/22 03:11:56;;;;;;;8.90;3.20;;;15.80;99.90;;;;;;5042118;28;20048;-80
2023/08/22 03:14:24;;;;;;;9.20;3.25;;;15.80;99.90;;;;;;5057490;28;20131;-79
2023/08/22 03:16:51;;;;;;;8.52;3.47;;;15.80;99.90;;;;;;5059218;28;20456;-80
2023/08/22 03:19:18;;;;;;;9.73;3.63;;;15.80;99.90;;;;;;5058155;28;20041;-80
2023/08/22 03:21:47;;;;;;;14.85;3.40;;;15.80;99.90;;;;;;5058556;28;20524;-80
2023/08/22 03:24:14;;;;;;;15.07;4.20;;;15.80;99.90;;;;;;5058004;28;20045;-80
2023/08/22 03:26:42;;;;;;;13.35;4.28;;;15.80;99.90;;;;;;5057490;28;20047;-80
2023/08/22 03:29:10;;;;;;;10.02;3.92;;;15.70;99.90;;;;;;5044616;28;20386;-80
2023/08/22 03:31:38;;;;;;;9.95;4.45;;;15.70;99.90;;;;;;5058033;28;20036;-80
2023/08/22 03:34:05;;;;;;;10.73;3.95;;;15.80;99.90;;;;;;5070416;28;20075;-80
2023/08/22 03:36:34;;;;;;;11.65;3.88;;;15.80;99.90;;;;;;5048494;28;20091;-80
2023/08/22 03:39:04;;;;;;;8.27;3.42;;;15.80;99.90;;;;;;5058093;28;20045;-80
2023/08/22 03:41:33;;;;;;;8.73;3.63;;;15.80;99.90;;;;;;5057550;28;20106;-80
2023/08/22 03:44:01;;;;;;;15.10;4.43;;;15.80;99.90;;;;;;5058967;28;20079;-80
2023/08/22 03:46:30;;;;;;;11.98;3.95;;;15.80;99.90;;;;;;5056656;28;20040;-80
2023/08/22 03:49:12;;;;;;;11.98;4.32;;;15.80;99.90;;;;;;5055201;28;20140;-80
2023/08/22 03:51:39;;;;;;;9.88;4.15;;;15.90;99.90;;;;;;5075324;28;20041;-81
2023/08/22 03:54:06;;;;;;;11.18;3.78;;;15.90;99.90;;;;;;5089032;28;20044;-79
2023/08/22 03:56:33;;;;;;;9.65;3.95;;;15.90;99.90;;;;;;5087220;28;20070;-80
2023/08/22 03:59:00;;;;;;;11.18;3.85;;;15.90;99.90;;;;;;5068008;28;20387;-81
2023/08/22 04:01:28;;;;;;;12.38;3.95;;;15.90;99.90;;;;;;5076723;28;20112;-80
2023/08/22 04:03:54;;;;;;;17.83;4.55;;;15.90;99.90;;;;;;5094881;28;20044;-80
2023/08/22 04:08:53;;;;;;;10.45;3.90;;;15.90;99.90;;;;;;5094591;28;20086;-81
2023/08/22 04:11:19;;;;;;;13.95;3.95;;;15.90;99.90;;;;;;5077564;28;20044;-81
2023/08/22 04:13:47;;;;;;;11.55;3.90;;;15.90;99.90;;;;;;5094695;28;20036;-80
2023/08/22 04:16:14;;;;;;;12.75;4.10;;;15.90;99.90;;;;;;5092574;28;20072;-80
2023/08/22 04:18:41;;;;;;;14.77;4.40;;;15.90;99.90;;;;;;5081662;28;20080;-81
2023/08/22 04:21:08;;;;;;;12.70;4.07;;;15.90;99.90;;;;;;5076717;28;20525;-82
2023/08/22 04:23:34;;;;;;;13.85;4.63;;;15.90;99.90;;;;;;5094052;28;20101;-79
2023/08/22 04:26:02;;;;;;;13.07;4.10;;;15.90;99.90;;;;;;5093080;28;20036;-80
2023/08/22 04:28:34;;;;;;;12.73;4.28;;;15.90;99.90;;;;;;5063202;28;20526;-80
2023/08/22 04:31:02;;;;;;;11.40;4.05;;;15.90;99.90;;;;;;5094714;28;20033;-80
2023/08/22 04:33:29;;;;;;;10.40;3.92;;;15.90;99.90;;;;;;5093526;28;20036;-80
2023/08/22 04:35:57;;;;;;;16.73;4.05;;;15.90;99.90;;;;;;5094688;28;20367;-80
2023/08/22 04:38:24;;;;;;;8.18;3.38;;;15.90;99.90;;;;;;5081792;28;20048;-80
2023/08/22 04:40:52;;;;;;;9.93;3.95;;;15.90;99.90;;;;;;5091831;28;20075;-81
2023/08/22 04:43:34;;;;;;;12.93;3.25;;;15.90;99.90;;;;;;5094586;28;20401;-81
2023/08/22 04:46:02;;;;;;;8.55;3.47;;;16.00;99.90;;;;;;5073873;28;20068;-81
2023/08/22 04:48:29;;;;;;;8.10;3.25;;;16.00;99.90;;;;;;5070669;28;20434;-81
2023/08/22 04:50:56;;;;;;;12.35;3.38;;;16.00;99.90;;;;;;5054144;28;20056;-81
2023/08/22 04:53:24;;;;;;;9.30;3.33;;;16.00;99.90;;;;;;5056130;28;20055;-81
2023/08/22 04:55:51;;;;;;;12.15;3.40;;;16.00;99.90;;;;;;5055250;28;20037;-81
2023/08/22 04:58:18;;;;;;;9.73;3.47;;;16.10;99.90;;;;;;5045025;28;20467;-81
2023/08/22 05:00:44;;;;;;;7.63;2.97;;;16.00;99.90;;;;;;5042725;28;20106;-81
2023/08/22 05:03:11;;;;;;;9.20;3.08;;;16.10;99.90;;;;;;5042710;28;20040;-81
2023/08/22 05:05:38;;;;;;;8.80;3.33;;;16.10;99.90;;;;;;5060453;28;20051;-81
2023/08/22 05:08:06;;;;;;;9.75;3.25;;;16.10;99.90;;;;;;5041649;28;20037;-81
2023/08/22 05:10:32;;;;;;;8.43;3.60;;;16.10;99.90;;;;;;5052156;28;20460;-80
2023/08/22 05:13:00;;;;;;;7.80;3.08;;;16.10;99.90;;;;;;5059905;28;20140;-81
2023/08/22 05:15:26;;;;;;;9.93;3.10;;;16.10;99.90;;;;;;5060601;28;20086;-81
2023/08/22 05:17:55;;;;;;;8.60;2.83;;;16.10;99.90;;;;;;5061019;28;20052;-81
2023/08/22 05:20:22;;;;;;;9.45;3.03;;;16.10;99.90;;;;;;5052798;28;20415;-80
2023/08/22 05:22:49;;;;;;;9.68;3.33;;;16.10;99.90;;;;;;5071822;28;20079;-80
2023/08/22 05:25:17;;;;;;;7.15;2.88;;;16.20;99.90;;;;;;5040372;28;20103;-81
2023/08/22 05:27:44;;;;;;;11.02;3.25;;;16.20;99.90;;;;;;5039684;28;20494;-81
2023/08/22 05:30:10;;;;;;;9.18;3.33;;;16.30;99.90;;;;;;5040907;28;20510;-81
2023/08/22 05:32:39;;;;;;;8.88;3.15;;;16.30;99.90;;;;;;5060388;28;20036;-80
2023/08/22 05:35:06;;;;;;;8.57;3.03;;;16.30;99.90;;;;;;5077927;28;20127;-80
2023/08/22 05:37:35;;;;;;;9.13;3.05;;;16.30;99.90;;;;;;5044272;28;20055;-80
2023/08/22 05:40:03;;;;;;;9.32;3.58;;;16.30;99.90;;;;;;5059795;28;20044;-81
2023/08/22 05:42:29;;;;;;;11.77;2.90;;;16.30;99.90;;;;;;5060375;28;20041;-80
2023/08/22 05:44:56;;;;;;;8.82;3.03;;;16.30;99.90;;;;;;5059929;28;20127;-80
2023/08/22 05:47:25;;;;;;;7.15;2.65;;;16.40;99.90;;;;;;5059455;28;20505;-82
2023/08/22 05:49:52;;;;;;;10.00;2.97;;;16.40;99.90;;;;;;5077182;28;20067;-81
2023/08/22 05:52:19;;;;;;;9.57;3.47;;;16.40;99.90;;;;;;5090998;28;20059;-81
2023/08/22 05:54:46;;;;;;;9.43;3.55;;;16.40;99.90;;;;;;5082646;28;20054;-81
2023/08/22 05:57:13;;;;;;;7.68;2.92;;;16.40;99.90;;;;;;5097214;28;20040;-81
2023/08/22 05:59:40;;;;;;;9.23;2.85;;;16.40;99.90;;;;;;5096539;28;20058;-81
2023/08/22 06:02:07;;;;;;;7.07;2.90;;;16.50;99.90;;;;;;5096671;28;20135;-81
2023/08/22 06:04:34;;;;;;;8.45;2.95;;;16.50;99.90;;;;;;5096708;28;20036;-81
2023/08/22 06:07:03;;;;;;;6.88;2.80;;;16.60;99.90;;;;;;5078977;28;20462;-81
2023/08/22 06:09:29;;;;;;;10.15;2.97;;;16.60;99.90;;;;;;5096721;28;20078;-81
2023/08/22 06:11:56;;;;;;;8.05;2.88;;;16.70;99.90;;;;;;5097949;28;20115;-81
2023/08/22 06:14:23;;;;;;;7.03;2.60;;;16.70;99.90;;;;;;5095512;28;20485;-81
2023/08/22 06:16:52;;;;;;;9.35;2.80;;;16.70;99.90;;;;;;5095370;28;20411;-80
2023/08/22 06:19:19;;;;;;;6.65;2.60;;;16.80;99.90;;;;;;5096620;28;20405;-80
2023/08/22 06:21:49;;;;;;;7.72;2.58;;;17.00;99.90;;;;;;5097337;28;20127;-81
2023/08/22 06:24:15;;;;;;;8.55;2.70;;;17.00;99.90;;;;;;5096103;28;20070;-81
2023/08/22 06:26:43;;;;;;;7.75;2.45;;;17.00;99.90;;;;;;5090137;28;20048;-81
2023/08/22 06:29:10;;;;;;;9.93;2.83;;;17.00;99.90;;;;;;5076215;28;20348;-82
2023/08/22 06:31:37;;;;;;;7.60;2.70;;;17.10;99.90;;;;;;5088480;28;20048;-80
2023/08/22 06:34:04;;;;;;;8.30;2.90;;;17.20;99.90;;;;;;5091128;28;20173;-82
2023/08/22 06:36:33;;;;;;;5.63;2.20;;;17.20;99.90;;;;;;5075941;28;20040;-81
2023/08/22 06:38:59;;;;;;;6.30;2.40;;;17.30;99.90;;;;;;5095445;28;20044;-81
2023/08/22 06:41:26;;;;;;;5.97;2.40;;;17.40;99.90;;;;;;5096143;28;20441;-81
2023/08/22 06:43:53;;;;;;;8.00;2.88;;;17.40;99.90;;;;;;5095733;28;20044;-80
2023/08/22 06:46:21;;;;;;;5.45;2.45;;;17.40;99.90;;;;;;5096192;28;20044;-81
2023/08/22 06:48:48;;;;;;;6.68;2.35;;;17.50;99.90;;;;;;5081920;28;20059;-80
2023/08/22 06:51:15;;;;;;;7.97;2.58;;;17.50;99.90;;;;;;5096238;28;20059;-81
2023/08/22 06:53:42;;;;;;;6.18;2.50;;;17.60;99.90;;;;;;5096017;28;20501;-81
2023/08/22 06:56:08;;;;;;;6.80;2.35;;;17.70;99.90;;;;;;5096493;28;20048;-81
2023/08/22 06:58:35;;;;;;;6.13;2.60;;;17.70;99.90;;;;;;5097011;28;20040;-81
2023/08/22 07:01:02;;;;;;;5.13;2.05;;;17.80;99.90;;;;;;5095873;28;20048;-81
2023/08/22 07:03:29;;;;;;;6.55;2.25;;;17.90;99.90;;;;;;5087467;28;20090;-81
2023/08/22 07:05:56;;;;;;;6.45;2.22;;;17.90;99.90;;;;;;5084637;28;20374;-81
2023/08/22 07:08:23;;;;;;;6.47;1.92;;;18.00;99.90;;;;;;5089835;28;20040;-81
2023/08/22 07:10:49;;;;;;;5.35;2.05;;;18.10;99.90;;;;;;5081930;28;20127;-82
2023/08/22 07:13:16;;;;;;;5.65;1.90;;;18.00;99.90;;;;;;5075495;28;20110;-81
2023/08/22 07:15:46;;;;;;;5.05;1.98;;;18.00;99.90;;;;;;5064364;28;20049;-84
2023/08/22 07:18:14;;;;;;;16.02;2.47;;;18.10;99.90;;;;;;5080057;28;20126;-81
2023/08/22 07:20:41;;;;;;;7.05;1.92;;;18.20;99.90;;;;;;5092368;28;20054;-80
2023/08/22 07:23:07;;;;;;;6.88;2.28;;;18.20;99.90;;;;;;5087420;28;20101;-80
2023/08/22 07:25:34;;;;;;;5.80;2.08;;;18.30;99.90;;;;;;5089766;28;20155;-80
2023/08/22 07:28:01;;;;;;;9.07;2.33;;;18.40;99.90;;;;;;5088066;28;20120;-80
2023/08/22 07:30:28;;;;;;;5.28;1.92;;;18.50;99.90;;;;;;5093890;28;20036;-80
2023/08/22 07:32:54;;;;;;;6.57;1.70;;;18.60;99.90;;;;;;5074941;28;20048;-80
2023/08/22 07:35:21;;;;;;;8.73;2.00;;;18.60;99.90;;;;;;5089820;28;20048;-80
2023/08/22 07:37:48;;;;;;;8.50;2.00;;;18.60;99.90;;;;;;5075866;28;20083;-81
2023/08/22 07:40:16;;;;;;;5.60;1.80;;;18.70;99.90;;;;;;5088552;28;20044;-81
2023/08/22 07:42:43;;;;;;;12.13;2.10;;;18.90;99.90;;;;;;5079734;28;20471;-80
2023/08/22 07:45:09;;;;;;;7.75;2.00;;;18.90;99.90;;;;;;5085356;28;20036;-80
2023/08/22 07:47:37;;;;;;;6.32;1.80;;;19.00;99.90;;;;;;5079399;28;20075;-81
2023/08/22 07:50:04;;;;;;;4.15;1.60;;;19.10;99.90;;;;;;5068790;28;20413;-81
2023/08/22 07:52:31;;;;;;;5.22;1.80;;;19.10;99.90;;;;;;5059767;28;20136;-80
2023/08/22 07:54:57;;;;;;;8.32;1.80;;;19.10;99.90;;;;;;5042963;28;20040;-80
2023/08/22 07:57:26;;;;;;;5.50;1.70;;;19.20;99.90;;;;;;5071528;28;20040;-82
2023/08/22 07:59:53;;;;;;;5.63;1.65;;;19.30;99.90;;;;;;5037291;28;20528;-82
2023/08/22 08:02:20;;;;;;;6.25;1.50;;;19.40;99.90;;;;;;5075090;28;20083;-82
2023/08/22 08:04:46;;;;;;;10.20;1.88;;;19.40;99.90;;;;;;5043044;28;20053;-82
2023/08/22 08:07:15;;;;;;;5.68;2.08;;;19.60;99.90;;;;;;5074275;28;20036;-82
2023/08/22 08:09:41;;;;;;;9.52;2.00;;;19.70;99.90;;;;;;5067510;28;20033;-81
2023/08/22 08:12:08;;;;;;;8.85;2.10;;;19.60;99.90;;;;;;5058159;28;20102;-80
2023/08/22 08:14:35;;;;;;;7.35;2.10;;;19.60;99.90;;;;;;5049648;28;20110;-82
2023/08/22 08:17:04;;;;;;;8.02;1.90;;;19.80;99.90;;;;;;5028610;28;20080;-80
2023/08/22 08:19:30;;;;;;;10.95;2.33;;;20.20;99.90;;;;;;5057611;28;20060;-82
2023/08/22 08:21:57;;;;;;;7.50;2.60;;;20.20;99.90;;;;;;5054840;28;20068;-81
2023/08/22 08:24:24;;;;;;;11.73;2.30;;;20.40;99.90;;;;;;5036953;28;20155;-81
2023/08/22 08:26:52;;;;;;;6.32;2.22;;;20.40;99.90;;;;;;5067600;28;20064;-82
2023/08/22 08:29:18;;;;;;;7.25;1.83;;;20.40;99.90;;;;;;5074770;28;20102;-81
2023/08/22 08:31:47;;;;;;;6.63;2.00;;;20.30;99.90;;;;;;5057070;28;20047;-81
2023/08/22 08:34:14;;;;;;;7.88;2.05;;;20.30;99.90;;;;;;5052915;28;20041;-80
2023/08/22 08:36:42;;;;;;;6.03;1.50;;;20.20;99.90;;;;;;5062847;28;20120;-80
2023/08/22 08:39:08;;;;;;;4.50;1.75;;;20.10;99.90;;;;;;5036599;28;20079;-81
2023/08/22 08:41:35;;;;;;;3.65;1.30;;;20.10;99.90;;;;;;5056225;28;20045;-81
2023/08/22 08:44:03;;;;;;;4.00;1.50;;;19.90;99.90;;;;;;5072928;28;20127;-82
2023/08/22 08:46:30;;;;;;;4.32;1.35;;;19.90;99.90;;;;;;5077065;28;20111;-82
2023/08/22 08:48:59;;;;;;;7.45;1.63;;;19.90;99.90;;;;;;5059251;28;20055;-85
2023/08/22 08:51:26;;;;;;;6.55;1.63;;;20.00;99.90;;;;;;5090632;28;20070;-82
2023/08/22 08:53:52;;;;;;;5.65;1.60;;;20.00;99.90;;;;;;5085537;28;20451;-87
2023/08/22 08:56:19;;;;;;;5.28;1.60;;;20.00;99.90;;;;;;5089188;28;20104;-81
2023/08/22 08:58:49;;;;;;;6.10;2.15;;;20.10;99.90;;;;;;5088217;28;20040;-84
2023/08/22 09:01:16;;;;;;;7.47;1.88;;;20.20;99.90;;;;;;5078990;28;20056;-86
2023/08/22 09:03:44;;;;;;;5.32;1.58;;;20.40;99.90;;;;;;5082684;28;20066;-88
2023/08/22 09:06:11;;;;;;;6.28;1.77;;;20.80;99.90;;;;;;5064983;28;20143;-87
2023/08/22 09:11:25;;;;;;;4.05;1.52;;;20.90;99.90;;;;;;5087979;28;20053;-85
2023/08/22 09:13:53;;;;;;;6.55;1.58;;;20.90;99.90;;;;;;5084311;28;20048;-87
2023/08/22 09:16:22;;;;;;;5.55;1.60;;;21.20;99.90;;;;;;5089549;28;20105;-88
2023/08/22 09:18:49;;;;;;;6.47;1.48;;;21.50;99.90;;;;;;5074087;28;20049;-87
2023/08/22 09:21:16;;;;;;;8.00;1.60;;;21.60;99.90;;;;;;5087272;28;20138;-84
2023/08/22 09:23:43;;;;;;;5.63;1.42;;;21.80;99.90;;;;;;5063784;28;20051;-83
2023/08/22 09:26:09;;;;;;;9.63;1.70;;;21.80;99.90;;;;;;5080538;28;20464;-86
2023/08/22 09:28:36;;;;;;;4.03;1.50;;;21.60;99.90;;;;;;5091631;28;20036;-84
2023/08/22 09:31:03;;;;;;;5.65;1.63;;;21.50;99.90;;;;;;5078139;28;20071;-85
2023/08/22 09:33:29;;;;;;;3.25;1.35;;;21.40;99.90;;;;;;5085779;28;20067;-87
2023/08/22 09:35:57;;;;;;;6.78;1.50;;;21.40;99.90;;;;;;5093881;28;20510;-87
2023/08/22 09:38:23;;;;;;;6.10;1.60;;;21.50;99.90;;;;;;5081845;28;20139;-84
2023/08/22 09:40:50;;;;;;;5.85;1.40;;;21.50;99.90;;;;;;5074110;28;20071;-85
2023/08/22 09:43:19;;;;;;;10.63;1.48;;;21.80;99.90;;;;;;5093913;28;20040;-85
2023/08/22 09:45:46;;;;;;;4.22;1.20;;;22.20;99.90;;;;;;5072132;28;20052;-83
2023/08/22 09:50:58;;;;;;;6.20;1.90;;;22.50;99.90;;;;;;5057469;28;20048;-83
2023/08/22 09:53:25;;;;;;;5.88;1.42;;;22.70;99.90;;;;;;5039170;28;20470;-84
2023/08/22 09:55:52;;;;;;;8.48;1.70;;;22.70;99.90;;;;;;5054144;28;20079;-85
2023/08/22 09:58:20;;;;;;;3.92;1.40;;;22.70;99.90;;;;;;5048023;28;20044;-86
2023/08/22 10:00:48;;;;;;;4.60;1.40;;;22.60;99.90;;;;;;5044770;28;20079;-82
2023/08/22 10:03:15;;;;;;;4.40;1.40;;;22.70;99.90;;;;;;5053511;28;20133;-85
2023/08/22 10:05:42;;;;;;;11.10;1.73;;;22.70;99.90;;;;;;5057527;28;20041;-82
2023/08/22 10:08:09;;;;;;;5.10;1.40;;;22.90;99.90;;;;;;5037590;28;20111;-86
2023/08/22 10:10:36;;;;;;;7.32;1.65;;;23.00;99.90;;;;;;5045816;28;20087;-86
2023/08/22 10:13:03;;;;;;;7.93;1.60;;;22.90;99.90;;;;;;5058840;28;20076;-85
2023/08/22 10:15:29;;;;;;;5.60;1.40;;;23.00;99.90;;;;;;5067685;28;20127;-88
2023/08/22 10:17:57;;;;;;;5.68;1.20;;;23.00;99.90;;;;;;5041753;28;20456;-86
2023/08/22 10:20:24;;;;;;;5.78;1.80;;;23.10;99.90;;;;;;5058802;28;20075;-87
2023/08/22 10:22:51;;;;;;;8.07;1.80;;;23.20;99.90;;;;;;5056212;28;20056;-86
2023/08/22 10:25:18;;;;;;;5.47;1.40;;;23.40;99.90;;;;;;5043714;28;20056;-87
2023/08/22 10:30:33;;;;;;;11.85;1.92;;;24.20;99.90;;;;;;5071273;28;20110;-88
2023/08/22 10:32:59;;;;;;;6.80;1.70;;;24.20;99.90;;;;;;5064988;28;20053;-88
2023/08/22 10:35:26;;;;;;;7.35;1.70;;;24.60;99.90;;;;;;5077085;28;20068;-89
2023/08/22 10:40:58;;;;;;;4.88;1.40;;;24.70;99.90;;;;;;5070291;28;20037;-86
2023/08/22 10:43:26;;;;;;;6.53;1.70;;;24.80;99.90;;;;;;5055271;28;20055;-83
2023/08/22 10:45:53;;;;;;;4.60;1.42;;;25.30;99.90;;;;;;5039658;28;20055;-88
2023/08/22 10:48:19;;;;;;;5.75;1.60;;;25.60;99.90;;;;;;5061612;28;20033;-90
2023/08/22 10:50:46;;;;;;;6.55;1.65;;;25.70;99.90;;;;;;5041254;28;20040;-81
2023/08/22 10:53:20;;;;;;;4.32;1.45;;;26.20;99.90;;;;;;5050694;28;20057;-88
2023/08/22 10:55:50;;;;;;;6.10;1.58;;;26.70;99.90;;;;;;5039280;28;20045;-88
2023/08/22 10:58:18;;;;;;;4.95;1.48;;;26.80;99.90;;;;;;5039268;28;20349;-89
2023/08/22 11:00:44;;;;;;;6.78;1.63;;;26.10;99.90;;;;;;5035772;28;20379;-89
2023/08/22 11:03:11;;;;;;;5.75;1.40;;;26.10;99.90;;;;;;5039090;28;20033;-88
2023/08/22 11:05:38;;;;;;;5.05;1.40;;;26.30;99.90;;;;;;5053024;28;20457;-86
2023/08/22 11:11:14;;;;;;;5.18;1.55;;;27.20;99.90;;;;;;5069905;28;20029;-90
2023/08/22 11:13:41;;;;;;;5.97;1.48;;;26.90;99.90;;;;;;5058396;28;20037;-88
2023/08/22 11:16:08;;;;;;;4.97;1.48;;;27.30;99.90;;;;;;5039973;28;20041;-88
2023/08/22 11:21:21;;;;;;;6.05;1.63;;;28.00;99.90;;;;;;5060030;28;20040;-88
2023/08/22 11:23:48;;;;;;;7.13;1.80;;;28.10;99.90;;;;;;5059872;28;20045;-84
2023/08/22 11:26:15;;;;;;;3.97;1.30;;;28.50;99.90;;;;;;5033585;28;20048;-90
2023/08/22 11:31:31;;;;;;;6.25;1.60;;;28.50;99.90;;;;;;5049744;28;20137;-91
2023/08/22 11:33:58;;;;;;;5.72;1.45;;;29.20;99.90;;;;;;5042291;28;20131;-89
2023/08/22 11:39:13;;;;;;;6.07;1.58;;;29.70;99.90;;;;;;5042922;28;20048;-90
2023/08/22 11:41:40;;;;;;;5.03;1.48;;;29.40;99.90;;;;;;5057830;28;20048;-92
2023/08/22 11:44:06;;;;;;;6.75;1.40;;;29.40;99.90;;;;;;5044302;28;20094;-89
2023/08/22 11:49:24;;;;;;;4.65;1.27;;;29.70;99.90;;;;;;5055813;28;20175;-89
2023/08/22 11:51:55;;;;;;;6.95;1.38;;;29.50;99.90;;;;;;5038160;28;20052;-86
2023/08/22 11:54:22;;;;;;;4.95;1.30;;;29.40;99.90;;;;;;5068393;28;20040;-88
2023/08/22 11:56:51;;;;;;;5.72;1.40;;;29.60;99.90;;;;;;5031310;28;20048;-87
2023/08/22 11:59:18;;;;;;;5.03;1.30;;;29.90;99.90;;;;;;5057559;28;20137;-86
2023/08/22 12:01:45;;;;;;;6.28;1.40;;;30.00;99.90;;;;;;5075038;28;20525;-85
2023/08/22 12:04:12;;;;;;;5.70;1.45;;;30.50;99.90;;;;;;5037395;28;20040;-84
2023/08/22 12:09:25;;;;;;;7.03;1.40;;;29.00;99.90;;;;;;5047263;28;20482;-87
2023/08/22 12:11:52;;;;;;;17.38;2.20;;;29.00;99.90;;;;;;5058218;28;20048;-86
2023/08/22 12:14:20;;;;;;;13.48;2.30;;;29.00;99.90;;;;;;5020029;28;20471;-88
2023/08/22 12:16:49;;;;;;;4.82;1.25;;;29.80;99.90;;;;;;5057809;28;20515;-87
2023/08/22 12:19:15;;;;;;;5.32;1.35;;;30.60;99.90;;;;;;5041208;28;20040;-88
2023/08/22 12:21:42;;;;;;;5.47;1.30;;;30.40;99.90;;;;;;5040308;28;20082;-90
2023/08/22 12:24:09;;;;;;;5.75;1.40;;;30.80;99.90;;;;;;5046631;28;20345;-87
2023/08/22 12:29:22;;;;;;;5.22;1.50;;;30.30;99.90;;;;;;5054872;28;20411;-86
2023/08/22 12:31:49;;;;;;;4.78;1.38;;;30.40;99.90;;;;;;5068442;28;20053;-87
2023/08/22 12:34:16;;;;;;;5.57;1.52;;;30.40;99.90;;;;;;5056468;28;20485;-88
2023/08/22 12:36:44;;;;;;;3.35;1.20;;;30.80;99.90;;;;;;5057288;28;20067;-88
2023/08/22 12:39:12;;;;;;;4.65;1.35;;;31.10;99.90;;;;;;5074596;28;20405;-87
2023/08/22 12:41:38;;;;;;;5.10;1.38;;;31.50;99.90;;;;;;5045935;28;20060;-86
2023/08/22 12:44:05;;;;;;;4.97;1.20;;;31.70;99.90;;;;;;5048808;28;21464;-86
2023/08/22 12:46:32;;;;;;;5.95;1.30;;;30.20;99.90;;;;;;5062838;28;20467;-86
2023/08/22 12:48:59;;;;;;;5.32;1.30;;;29.40;99.90;;;;;;5060239;28;20055;-86
2023/08/22 12:51:26;;;;;;;4.60;1.40;;;29.10;99.90;;;;;;5050087;28;20434;-85
2023/08/22 12:53:52;;;;;;;6.32;1.25;;;29.30;99.90;;;;;;5043495;28;20426;-85
2023/08/22 12:56:26;;;;;;;4.47;1.30;;;29.70;99.90;;;;;;5068646;28;20033;-85
2023/08/22 12:58:53;;;;;;;3.97;1.30;;;30.50;99.90;;;;;;5044622;28;20045;-85
2023/08/22 13:01:20;;;;;;;4.78;1.40;;;30.20;99.90;;;;;;5033878;28;20037;-85
2023/08/22 13:03:47;;;;;;;4.25;1.27;;;29.40;99.90;;;;;;5044436;28;20041;-85
2023/08/22 13:06:14;;;;;;;6.05;1.30;;;29.50;99.90;;;;;;5071356;28;20063;-87
2023/08/22 13:11:26;;;;;;;4.25;1.20;;;30.30;99.90;;;;;;5061100;28;20049;-85
2023/08/22 13:13:53;;;;;;;4.22;1.23;;;30.60;99.90;;;;;;5069462;28;20044;-87
2023/08/22 13:16:20;;;;;;;5.82;1.25;;;31.00;99.90;;;;;;5065691;28;20083;-85
2023/08/22 13:18:47;;;;;;;3.92;1.23;;;31.10;99.90;;;;;;5072633;28;20097;-85
2023/08/22 13:21:14;;;;;;;4.90;1.20;;;30.80;99.90;;;;;;5082268;28;20051;-85
2023/08/22 13:23:41;;;;;;;4.57;1.30;;;30.70;99.90;;;;;;5049254;28;20479;-85
2023/08/22 13:26:07;;;;;;;6.10;1.58;;;31.30;99.90;;;;;;5064976;28;20063;-85